createdAt,value
2022-09-05T00:02:49.776Z,14.97
2022-09-05T00:06:02.308Z,15.04
2022-09-05T00:09:02.845Z,14.88
2022-09-05T00:16:00.425Z,14.83
2022-09-05T00:24:17.017Z,14.87
2022-09-05T00:24:25.895Z,14.54
2022-09-05T00:26:18.388Z,14.57
2022-09-05T00:29:39.655Z,14.56
2022-09-05T00:33:17.174Z,14.40
2022-09-05T00:36:27.423Z,14.52
2022-09-05T00:39:22.858Z,14.33
2022-09-05T00:42:15.283Z,14.26
2022-09-05T00:45:07.027Z,14.19
2022-09-05T00:48:25.355Z,14.16
2022-09-05T00:51:39.535Z,14.12
2022-09-05T00:54:51.482Z,14.01
2022-09-05T00:58:02.160Z,14.05
2022-09-05T01:00:55.099Z,13.86
2022-09-05T01:04:05.925Z,14.09
2022-09-05T01:07:29.839Z,14.12
2022-09-05T01:10:30.056Z,14.03
2022-09-05T01:13:36.824Z,13.78
2022-09-05T01:16:33.474Z,13.59
2022-09-05T01:19:39.282Z,13.53
2022-09-05T01:22:57.593Z,13.43
2022-09-05T01:26:23.175Z,13.42
2022-09-05T01:29:26.604Z,13.41
2022-09-05T01:32:30.358Z,13.37
2022-09-05T01:36:03.679Z,13.27
2022-09-05T01:40:11.606Z,13.11
2022-09-05T01:42:33.345Z,13.01
2022-09-05T01:45:39.288Z,13.12
2022-09-05T01:48:44.514Z,12.97
2022-09-05T01:51:48.187Z,12.95
2022-09-05T01:54:54.189Z,12.88
2022-09-05T01:57:52.970Z,12.78
2022-09-05T02:00:51.732Z,12.68
2022-09-05T02:03:45.639Z,12.65
2022-09-05T02:06:44.206Z,12.64
2022-09-05T02:10:07.824Z,12.57
2022-09-05T02:13:04.847Z,12.47
2022-09-05T02:16:05.314Z,12.50
2022-09-05T02:19:01.604Z,12.40
2022-09-05T02:22:02.677Z,12.37
2022-09-05T02:24:59.818Z,12.38
2022-09-05T02:28:14.666Z,12.28
2022-09-05T02:31:20.087Z,12.21
2022-09-05T02:34:17.110Z,12.20
2022-09-05T02:37:13.740Z,12.12
2022-09-05T02:45:01.506Z,12.05
2022-09-05T02:45:13.412Z,12.06
2022-09-05T02:46:56.873Z,11.98
2022-09-05T02:53:15.948Z,11.94
2022-09-05T02:57:35.413Z,11.89
2022-09-05T02:58:04.133Z,11.88
2022-09-05T03:00:13.814Z,11.86
2022-09-05T03:03:35.042Z,11.88
2022-09-05T03:06:35.988Z,11.72
2022-09-05T03:09:45.124Z,11.65
2022-09-05T03:13:54.498Z,11.49
2022-09-05T03:17:30.366Z,11.44
2022-09-05T03:20:54.144Z,11.32
2022-09-05T03:24:21.660Z,11.23
2022-09-05T03:28:04.634Z,11.16
2022-09-05T03:31:22.647Z,11.18
2022-09-05T03:35:08.675Z,11.17
2022-09-05T03:38:34.050Z,11.15
2022-09-05T03:41:45.581Z,11.13
2022-09-05T03:44:58.280Z,11.10
2022-09-05T03:48:28.799Z,11.08
2022-09-05T03:57:12.028Z,11.13
2022-09-05T03:57:18.917Z,11.07
2022-09-05T03:59:25.870Z,11.13
2022-09-05T04:05:46.945Z,11.07
2022-09-05T04:08:11.203Z,10.98
2022-09-05T04:08:55.064Z,10.87
2022-09-05T04:11:48.526Z,10.85
2022-09-05T04:14:47.452Z,10.89
2022-09-05T04:17:43.770Z,10.92
2022-09-05T04:20:43.938Z,10.93
2022-09-05T04:23:44.218Z,10.96
2022-09-05T04:27:17.930Z,11.06
2022-09-05T04:30:39.462Z,11.07
2022-09-05T04:33:37.330Z,11.09
2022-09-05T04:36:29.981Z,11.06
2022-09-05T04:39:29.202Z,11.03
2022-09-05T04:42:25.371Z,11.15
2022-09-05T04:45:24.120Z,11.12
2022-09-05T04:48:20.130Z,11.10
2022-09-05T04:51:13.170Z,11.22
2022-09-05T04:54:27.568Z,11.31
2022-09-05T04:57:30.785Z,11.45
2022-09-05T05:05:06.333Z,11.47
2022-09-05T05:06:12.049Z,11.60
2022-09-05T05:06:55.896Z,11.69
2022-09-05T05:10:55.435Z,11.78
2022-09-05T05:18:02.721Z,12.24
2022-09-05T05:18:09.264Z,12.37
2022-09-05T05:19:47.361Z,12.11
2022-09-05T05:23:07.526Z,12.36
2022-09-05T05:26:01.020Z,12.50
2022-09-05T05:28:59.703Z,12.68
2022-09-05T05:31:53.230Z,12.77
2022-09-05T05:34:48.674Z,12.73
2022-09-05T05:37:43.990Z,12.80
2022-09-05T05:40:40.977Z,13.01
2022-09-05T05:43:46.235Z,12.96
2022-09-05T05:46:40.751Z,13.17
2022-09-05T05:49:55.114Z,13.34
2022-09-05T05:53:41.054Z,13.61
2022-09-05T05:56:53.461Z,13.71
2022-09-05T06:00:06.436Z,13.90
2022-09-05T06:03:43.958Z,14.37
2022-09-05T06:07:02.108Z,14.22
2022-09-05T06:14:49.079Z,14.20
2022-09-05T06:14:56.460Z,14.35
2022-09-05T06:18:16.750Z,14.51
2022-09-05T06:22:11.674Z,14.71
2022-09-05T06:25:50.468Z,14.97
2022-09-05T06:28:58.268Z,15.42
2022-09-05T06:32:05.331Z,15.25
2022-09-05T06:35:23.616Z,15.44
2022-09-05T06:38:44.593Z,15.60
2022-09-05T06:41:49.800Z,16.85
2022-09-05T06:45:27.527Z,16.10
2022-09-05T06:48:33.651Z,16.71
2022-09-05T06:52:28.175Z,16.72
2022-09-05T06:55:57.597Z,17.17
2022-09-05T06:59:40.521Z,17.56
2022-09-05T07:02:58.155Z,17.90
2022-09-05T07:05:55.944Z,18.37
2022-09-05T07:08:51.990Z,19.78
2022-09-05T07:11:57.005Z,19.61
2022-09-05T07:14:59.177Z,20.24
2022-09-05T07:18:11.066Z,21.68
2022-09-05T07:21:18.304Z,22.00
2022-09-05T07:24:32.645Z,23.17
2022-09-05T07:28:01.515Z,24.02
2022-09-05T07:30:51.346Z,25.48
2022-09-05T07:33:41.094Z,25.26
2022-09-05T07:36:40.799Z,27.32
2022-09-05T07:39:35.573Z,25.83
2022-09-05T07:42:31.463Z,27.43
2022-09-05T07:45:26.214Z,27.31
2022-09-05T07:48:22.329Z,25.68
2022-09-05T07:56:17.165Z,26.77
2022-09-05T07:56:56.542Z,26.64
2022-09-05T07:57:51.971Z,27.31
2022-09-05T08:00:45.352Z,27.88
2022-09-05T08:03:34.018Z,26.68
2022-09-05T08:07:20.185Z,27.02
2022-09-05T08:10:05.617Z,26.02
2022-09-05T08:13:24.193Z,27.21
2022-09-05T08:16:13.049Z,27.15
2022-09-05T08:19:33.349Z,27.28
2022-09-05T08:22:26.161Z,27.77
2022-09-05T08:25:20.131Z,27.28
2022-09-05T08:28:20.496Z,28.48
2022-09-05T08:31:18.314Z,27.95
2022-09-05T08:34:12.825Z,27.56
2022-09-05T08:37:02.601Z,27.61
2022-09-05T08:39:54.268Z,28.45
2022-09-05T08:46:37.832Z,28.87
2022-09-05T08:46:43.475Z,27.83
2022-09-05T08:49:55.781Z,29.94
2022-09-05T08:52:59.760Z,30.31
2022-09-05T08:55:58.120Z,33.83
2022-09-05T08:59:28.349Z,28.82
2022-09-05T09:03:04.266Z,29.40
2022-09-05T09:06:26.814Z,30.89
2022-09-05T09:09:30.113Z,30.55
2022-09-05T09:12:52.678Z,31.28
2022-09-05T09:15:46.157Z,28.13
2022-09-05T09:19:03.901Z,28.74
2022-09-05T09:22:09.510Z,28.16
2022-09-05T09:25:14.534Z,32.67
2022-09-05T09:28:50.419Z,29.83
2022-09-05T09:32:00.929Z,30.12
2022-09-05T09:35:05.507Z,32.40
2022-09-05T09:38:32.135Z,34.19
2022-09-05T09:41:45.424Z,31.80
2022-09-05T09:45:22.908Z,32.76
2022-09-05T09:49:00.423Z,29.97
2022-09-05T09:52:38.745Z,30.93
2022-09-05T09:56:19.635Z,32.85
2022-09-05T09:59:54.144Z,32.86
2022-09-05T10:06:49.552Z,35.66
2022-09-05T10:10:45.728Z,30.72
2022-09-05T10:11:42.702Z,31.25
2022-09-05T10:15:02.607Z,31.25
2022-09-05T10:18:47.611Z,33.09
2022-09-05T10:25:44.607Z,30.64
2022-09-05T10:28:41.046Z,29.38
2022-09-05T10:35:05.253Z,31.31
2022-09-05T10:35:23.769Z,31.46
2022-09-05T10:38:17.942Z,30.98
2022-09-05T10:41:21.006Z,30.31
2022-09-05T10:44:14.494Z,29.53
2022-09-05T10:47:32.682Z,28.44
2022-09-05T10:50:29.885Z,29.20
2022-09-05T10:53:39.716Z,26.40
2022-09-05T10:56:39.801Z,26.84
2022-09-05T11:02:20.212Z,26.87
2022-09-05T11:02:47.531Z,26.89
2022-09-05T11:05:40.001Z,27.42
2022-09-05T11:08:41.711Z,28.13
2022-09-05T11:11:34.620Z,28.52
2022-09-05T11:14:43.776Z,28.46
2022-09-05T11:17:40.904Z,27.32
2022-09-05T11:20:50.808Z,27.39
2022-09-05T11:23:56.808Z,26.94
2022-09-05T11:27:24.545Z,26.58
2022-09-05T11:30:07.104Z,24.99
2022-09-05T11:35:55.710Z,25.06
2022-09-05T11:39:59.338Z,25.72
2022-09-05T11:40:54.910Z,25.47
2022-09-05T11:44:25.042Z,25.24
2022-09-05T11:47:44.815Z,24.09
2022-09-05T11:51:06.254Z,23.96
2022-09-05T11:54:58.049Z,24.31
2022-09-05T12:40:04.988Z,23.74
2022-09-05T13:03:09.274Z,22.41
2022-09-05T13:03:28.572Z,22.52
2022-09-05T13:06:25.784Z,22.98
2022-09-05T13:09:29.411Z,23.07
2022-09-05T13:14:58.991Z,22.92
2022-09-05T13:15:53.429Z,22.18
2022-09-05T13:18:44.635Z,21.73
2022-09-05T13:21:33.120Z,22.57
2022-09-05T13:24:30.761Z,21.91
2022-09-05T13:27:26.904Z,22.90
2022-09-05T13:32:30.973Z,22.46
2022-09-05T13:38:05.478Z,23.09
2022-09-05T13:38:16.418Z,23.02
2022-09-05T13:40:04.797Z,23.07
2022-09-05T13:43:08.088Z,23.12
2022-09-05T13:46:11.693Z,23.05
2022-09-05T13:49:29.370Z,23.12
2022-09-05T13:52:30.810Z,22.52
2022-09-05T13:55:26.419Z,23.31
2022-09-05T13:58:29.208Z,21.94
2022-09-05T14:02:25.746Z,23.03
2022-09-05T14:05:28.133Z,23.00
2022-09-05T14:08:44.135Z,22.21
2022-09-05T14:11:58.947Z,22.00
2022-09-05T14:15:09.706Z,22.31
2022-09-05T14:18:22.351Z,22.83
2022-09-05T14:21:17.360Z,22.34
2022-09-05T14:24:14.498Z,22.38
2022-09-05T14:27:14.796Z,21.50
2022-09-05T14:29:49.759Z,21.31
2022-09-05T14:37:39.150Z,21.59
2022-09-05T14:37:52.008Z,21.26
2022-09-05T14:39:25.773Z,21.67
2022-09-05T14:42:23.998Z,21.55
2022-09-05T14:45:30.663Z,21.43
2022-09-05T14:48:50.226Z,23.11
2022-09-05T14:51:45.403Z,22.92
2022-09-05T15:00:14.486Z,22.94
2022-09-05T15:02:54.501Z,22.93
2022-09-05T15:03:11.256Z,22.79
2022-09-05T15:05:50.274Z,22.00
2022-09-05T15:11:18.220Z,21.42
2022-09-05T15:12:20.729Z,21.11
2022-09-05T15:14:13.948Z,21.14
2022-09-05T15:16:59.956Z,22.51
2022-09-05T15:20:05.646Z,22.80
2022-09-05T15:22:41.839Z,22.35
2022-09-05T15:25:21.467Z,22.73
2022-09-05T15:27:52.934Z,22.58
2022-09-05T15:30:33.368Z,22.39
2022-09-05T15:33:25.558Z,22.74
2022-09-05T15:35:56.014Z,22.57
2022-09-05T15:38:30.002Z,22.54
2022-09-05T15:41:11.481Z,22.55
2022-09-05T15:43:58.342Z,21.52
2022-09-05T15:46:46.300Z,21.79
2022-09-05T15:49:29.295Z,21.04
2022-09-05T15:52:02.155Z,21.08
2022-09-05T15:54:37.798Z,20.67
2022-09-05T15:57:17.576Z,21.02
2022-09-05T15:59:55.182Z,20.86
2022-09-05T16:02:29.340Z,21.72
2022-09-05T16:10:29.443Z,21.79
2022-09-05T16:10:39.106Z,21.51
2022-09-05T16:12:13.756Z,21.29
2022-09-05T16:14:36.486Z,21.26
2022-09-05T16:23:14.208Z,21.15
2022-09-05T16:23:17.634Z,21.03
2022-09-05T16:23:39.305Z,20.98
2022-09-05T16:26:13.223Z,21.52
2022-09-05T16:28:52.858Z,20.76
2022-09-05T16:31:33.077Z,20.51
2022-09-05T16:34:10.413Z,21.25
2022-09-05T16:37:05.149Z,20.27
2022-09-05T16:39:45.105Z,20.29
2022-09-05T16:42:22.153Z,20.00
2022-09-05T16:45:00.338Z,20.11
2022-09-05T16:47:36.990Z,19.95
2022-09-05T16:50:23.946Z,19.54
2022-09-05T16:53:30.281Z,19.41
2022-09-05T16:56:04.831Z,20.00
2022-09-05T16:58:39.845Z,20.73
2022-09-05T17:01:37.413Z,20.05
2022-09-05T17:04:16.524Z,19.42
2022-09-05T17:06:57.141Z,19.46
2022-09-05T17:09:28.500Z,19.14
2022-09-05T17:12:02.095Z,18.87
2022-09-05T17:14:37.895Z,18.71
2022-09-05T17:17:23.473Z,18.54
2022-09-05T17:20:14.717Z,18.55
2022-09-05T17:27:31.814Z,18.40
2022-09-05T17:29:30.091Z,17.98
2022-09-05T17:29:34.491Z,18.21
2022-09-05T17:32:06.161Z,17.79
2022-09-05T17:34:58.819Z,17.62
2022-09-05T17:38:28.439Z,17.39
2022-09-05T17:41:43.259Z,17.22
2022-09-05T17:44:21.958Z,17.02
2022-09-05T17:47:10.243Z,16.92
2022-09-05T17:49:46.519Z,16.82
2022-09-05T17:52:24.636Z,16.72
2022-09-05T17:54:56.696Z,16.59
2022-09-05T17:57:45.230Z,16.43
2022-09-05T18:01:07.617Z,16.34
2022-09-05T18:04:16.311Z,16.17
2022-09-05T18:06:59.983Z,16.13
2022-09-05T18:10:15.377Z,16.01
2022-09-05T18:13:12.817Z,15.92
2022-09-05T18:16:14.367Z,15.85
2022-09-05T18:19:32.038Z,15.81
2022-09-05T18:21:51.498Z,15.70
2022-09-05T18:24:37.546Z,15.64
2022-09-05T18:27:37.803Z,15.61
2022-09-05T18:33:53.854Z,15.49
2022-09-05T18:36:35.896Z,15.36
2022-09-05T18:40:03.961Z,15.32
2022-09-05T18:42:39.297Z,15.21
2022-09-05T18:45:16.364Z,15.17
2022-09-05T18:47:53.269Z,15.09
2022-09-05T18:50:32.542Z,15.03
2022-09-05T18:53:10.507Z,15.00
2022-09-05T18:56:13.599Z,14.98
2022-09-05T18:59:09.648Z,14.99
2022-09-05T19:01:49.863Z,14.97
2022-09-05T19:04:38.983Z,14.97
2022-09-05T19:07:15.270Z,14.91
2022-09-05T19:10:36.139Z,14.88
2022-09-05T19:12:59.217Z,14.82
2022-09-05T19:15:36.372Z,14.86
2022-09-05T19:18:26.199Z,14.83
2022-09-05T19:21:12.075Z,14.74
2022-09-05T19:23:55.046Z,14.69
2022-09-05T19:26:25.753Z,14.65
2022-09-05T19:33:14.307Z,14.63
2022-09-05T19:36:53.189Z,14.55
2022-09-05T19:37:05.476Z,14.59
2022-09-05T19:37:43.011Z,14.51
2022-09-05T19:45:36.765Z,14.52
2022-09-05T19:47:35.530Z,14.48
2022-09-05T19:47:43.283Z,14.53
2022-09-05T19:49:09.301Z,14.39
2022-09-05T19:51:41.108Z,14.43
2022-09-05T19:54:26.573Z,14.46
2022-09-05T19:57:01.756Z,14.41
2022-09-05T19:59:38.200Z,14.41
2022-09-05T20:02:11.878Z,14.44
2022-09-05T20:04:52.987Z,14.40
2022-09-05T20:07:24.992Z,14.41
2022-09-05T20:09:56.207Z,14.46
2022-09-05T20:12:31.613Z,14.47
2022-09-05T20:15:21.691Z,14.54
2022-09-05T20:17:52.235Z,14.50
2022-09-05T20:20:25.987Z,14.52
2022-09-05T20:23:02.913Z,14.68
2022-09-05T20:25:39.676Z,14.57
2022-09-05T20:28:12.678Z,14.54
2022-09-05T20:30:44.748Z,14.54
2022-09-05T20:33:23.929Z,14.73
2022-09-05T20:42:09.286Z,14.61
2022-09-05T20:43:22.463Z,14.58
2022-09-05T20:43:30.426Z,14.54
2022-09-05T20:44:42.275Z,14.55
2022-09-05T20:54:05.957Z,14.56
2022-09-05T20:54:17.838Z,14.48
2022-09-05T20:54:22.372Z,14.43
2022-09-05T20:56:22.700Z,14.42
2022-09-05T20:58:55.702Z,14.49
2022-09-05T21:01:24.943Z,14.45
2022-09-05T21:03:57.711Z,14.60
2022-09-05T21:06:33.522Z,14.47
2022-09-05T21:09:29.390Z,14.50
2022-09-05T21:12:06.000Z,14.41
2022-09-05T21:14:37.612Z,14.44
2022-09-05T21:17:15.159Z,14.49
2022-09-05T21:19:53.998Z,14.40
2022-09-05T21:22:32.792Z,14.33
2022-09-05T21:25:23.354Z,14.34
2022-09-05T21:28:02.144Z,14.31
2022-09-05T21:30:34.244Z,14.35
2022-09-05T21:33:12.945Z,14.34
2022-09-05T21:35:51.938Z,14.35
2022-09-05T21:38:32.677Z,14.17
2022-09-05T21:41:04.624Z,14.14
2022-09-05T21:47:45.067Z,14.17
2022-09-05T21:47:51.326Z,14.05
2022-09-05T21:49:18.970Z,13.90
2022-09-05T21:51:50.348Z,13.86
2022-09-05T21:59:16.154Z,13.72
2022-09-05T21:59:16.627Z,13.75
2022-09-05T22:00:16.267Z,13.69
2022-09-05T22:02:49.059Z,13.63
2022-09-05T22:05:20.233Z,13.54
2022-09-05T22:07:53.381Z,13.52
2022-09-05T22:10:23.231Z,13.57
2022-09-05T22:13:08.502Z,13.50
2022-09-05T22:15:39.133Z,13.43
2022-09-05T22:18:16.367Z,13.35
2022-09-05T22:21:31.732Z,13.35
2022-09-05T22:23:44.385Z,13.45
2022-09-05T22:26:15.479Z,13.29
2022-09-05T22:28:49.021Z,13.27
2022-09-05T22:31:18.580Z,13.29
2022-09-05T22:33:50.849Z,13.21
2022-09-05T22:36:20.079Z,13.22
2022-09-05T22:38:48.809Z,13.20
2022-09-05T22:41:17.353Z,13.16
2022-09-05T22:43:47.675Z,13.14
2022-09-05T22:46:16.692Z,13.07
2022-09-05T22:48:45.304Z,13.01
2022-09-05T22:51:14.238Z,12.91
2022-09-05T22:53:42.767Z,12.91
2022-09-05T22:56:12.055Z,12.85
2022-09-05T22:58:44.514Z,12.84
2022-09-05T23:01:15.028Z,12.81
2022-09-05T23:03:43.829Z,12.73
2022-09-05T23:06:13.291Z,12.70
2022-09-05T23:08:41.874Z,12.69
2022-09-05T23:11:13.297Z,12.68
2022-09-05T23:13:42.631Z,12.62
2022-09-05T23:16:12.085Z,12.64
2022-09-05T23:18:42.761Z,12.64
2022-09-05T23:21:14.639Z,12.61
2022-09-05T23:23:43.921Z,12.48
2022-09-05T23:26:16.302Z,12.42
2022-09-05T23:28:45.350Z,12.41
2022-09-05T23:31:14.090Z,12.41
2022-09-05T23:33:44.459Z,12.35
2022-09-05T23:36:15.053Z,12.35
2022-09-05T23:38:44.866Z,12.26
2022-09-05T23:41:16.611Z,12.24
2022-09-05T23:43:45.175Z,12.23
2022-09-05T23:46:13.865Z,12.19
2022-09-05T23:48:44.640Z,12.17
2022-09-05T23:51:14.750Z,12.15
2022-09-05T23:53:43.795Z,12.13
2022-09-05T23:56:12.904Z,12.09
2022-09-05T23:58:41.481Z,12.03
